sensor_id;sensor_type;location;lat;lon;timestamp;pressure;altitude;pressure_sealevel;temperature;humidity
56340;BME280;42243;42.644;23.366;2023-05-21T00:00:45;94326.84;;;15.02;75.50
56340;BME280;42243;42.644;23.366;2023-05-21T00:03:11;94413.91;;;15.75;75.04
56340;BME280;42243;42.644;23.366;2023-05-21T00:05:39;94384.44;;;15.61;74.74
56340;BME280;42243;42.644;23.366;2023-05-21T00:08:05;94303.41;;;15.12;74.21
56340;BME280;42243;42.644;23.366;2023-05-21T00:10:30;94380.19;;;15.72;73.58
56340;BME280;42243;42.644;23.366;2023-05-21T00:12:56;94337.69;;;15.06;74.55
56340;BME280;42243;42.644;23.366;2023-05-21T00:15:21;94376.50;;;15.03;76.19
56340;BME280;42243;42.644;23.366;2023-05-21T00:17:46;94346.00;;;14.62;77.09
56340;BME280;42243;42.644;23.366;2023-05-21T00:20:12;94327.50;;;14.69;76.33
56340;BME280;42243;42.644;23.366;2023-05-21T00:22:37;94394.94;;;15.32;76.28
56340;BME280;42243;42.644;23.366;2023-05-21T00:25:05;94323.56;;;14.95;75.92
56340;BME280;42243;42.644;23.366;2023-05-21T00:27:30;94400.28;;;15.49;75.95
56340;BME280;42243;42.644;23.366;2023-05-21T00:29:56;94297.13;;;14.85;75.85
56340;BME280;42243;42.644;23.366;2023-05-21T00:32:22;94391.50;;;15.32;76.38
56340;BME280;42243;42.644;23.366;2023-05-21T00:34:47;94276.88;;;14.56;76.39
56340;BME280;42243;42.644;23.366;2023-05-21T00:37:13;94397.22;;;15.29;76.62
56340;BME280;42243;42.644;23.366;2023-05-21T00:39:39;94371.59;;;15.07;77.17
56340;BME280;42243;42.644;23.366;2023-05-21T00:42:05;94339.88;;;14.97;76.99
56340;BME280;42243;42.644;23.366;2023-05-21T00:44:31;94236.97;;;14.19;76.91
56340;BME280;42243;42.644;23.366;2023-05-21T00:47:03;94354.59;;;14.86;77.31
56340;BME280;42243;42.644;23.366;2023-05-21T00:49:29;94380.03;;;15.09;77.21
56340;BME280;42243;42.644;23.366;2023-05-21T00:51:55;94323.25;;;14.68;76.92
56340;BME280;42243;42.644;23.366;2023-05-21T00:54:21;94250.97;;;14.25;77.22
56340;BME280;42243;42.644;23.366;2023-05-21T00:56:47;94369.97;;;15.06;77.23
56340;BME280;42243;42.644;23.366;2023-05-21T00:59:16;94288.47;;;14.49;77.84
56340;BME280;42243;42.644;23.366;2023-05-21T01:01:43;94383.78;;;15.13;77.56
56340;BME280;42243;42.644;23.366;2023-05-21T01:04:10;94354.72;;;15.03;76.84
56340;BME280;42243;42.644;23.366;2023-05-21T01:06:35;94287.06;;;14.81;75.72
56340;BME280;42243;42.644;23.366;2023-05-21T01:09:02;94312.72;;;14.91;75.55
56340;BME280;42243;42.644;23.366;2023-05-21T01:11:47;94274.91;;;14.52;76.17
56340;BME280;42243;42.644;23.366;2023-05-21T01:14:15;94318.22;;;14.90;75.99
56340;BME280;42243;42.644;23.366;2023-05-21T01:16:42;94327.22;;;14.94;76.41
56340;BME280;42243;42.644;23.366;2023-05-21T01:19:15;94166.22;;;14.07;76.53
56340;BME280;42243;42.644;23.366;2023-05-21T01:21:44;94371.50;;;15.42;76.79
56340;BME280;42243;42.644;23.366;2023-05-21T01:24:10;94280.00;;;14.82;76.90
56340;BME280;42243;42.644;23.366;2023-05-21T01:26:35;94381.81;;;15.32;77.62
56340;BME280;42243;42.644;23.366;2023-05-21T01:29:06;94321.50;;;15.09;77.73
56340;BME280;42243;42.644;23.366;2023-05-21T01:32:04;94366.13;;;15.49;77.45
56340;BME280;42243;42.644;23.366;2023-05-21T01:34:43;94374.94;;;15.43;77.93
56340;BME280;42243;42.644;23.366;2023-05-21T01:37:14;94286.84;;;14.95;77.73
56340;BME280;42243;42.644;23.366;2023-05-21T01:39:43;94359.75;;;15.45;77.92
56340;BME280;42243;42.644;23.366;2023-05-21T01:42:14;94338.31;;;15.25;78.30
56340;BME280;42243;42.644;23.366;2023-05-21T01:44:41;94299.59;;;15.03;78.27
56340;BME280;42243;42.644;23.366;2023-05-21T01:47:06;94238.66;;;14.60;78.57
56340;BME280;42243;42.644;23.366;2023-05-21T01:49:33;94232.47;;;14.55;78.40
56340;BME280;42243;42.644;23.366;2023-05-21T01:51:58;94343.44;;;15.31;78.47
56340;BME280;42243;42.644;23.366;2023-05-21T01:54:24;94330.53;;;15.30;77.99
56340;BME280;42243;42.644;23.366;2023-05-21T01:56:49;94286.03;;;14.94;78.36
56340;BME280;42243;42.644;23.366;2023-05-21T01:59:17;94304.34;;;15.06;78.36
56340;BME280;42243;42.644;23.366;2023-05-21T02:01:44;94361.81;;;15.43;78.59
56340;BME280;42243;42.644;23.366;2023-05-21T02:04:09;94268.34;;;14.90;78.25
56340;BME280;42243;42.644;23.366;2023-05-21T02:06:35;94313.25;;;15.17;78.34
56340;BME280;42243;42.644;23.366;2023-05-21T02:09:01;94307.47;;;15.03;78.78
56340;BME280;42243;42.644;23.366;2023-05-21T02:11:27;94270.34;;;14.71;78.77
56340;BME280;42243;42.644;23.366;2023-05-21T02:13:53;94314.69;;;14.84;79.27
56340;BME280;42243;42.644;23.366;2023-05-21T02:16:19;94312.28;;;14.94;79.05
56340;BME280;42243;42.644;23.366;2023-05-21T02:18:46;94325.34;;;15.06;78.89
56340;BME280;42243;42.644;23.366;2023-05-21T02:21:15;94358.53;;;15.24;78.25
56340;BME280;42243;42.644;23.366;2023-05-21T02:23:41;94255.66;;;14.58;78.88
56340;BME280;42243;42.644;23.366;2023-05-21T02:26:06;94281.84;;;14.70;78.74
56340;BME280;42243;42.644;23.366;2023-05-21T02:28:32;94311.19;;;14.78;79.29
56340;BME280;42243;42.644;23.366;2023-05-21T02:30:58;94313.22;;;14.76;80.05
56340;BME280;42243;42.644;23.366;2023-05-21T02:33:23;94347.63;;;15.03;79.92
56340;BME280;42243;42.644;23.366;2023-05-21T02:35:50;94251.75;;;14.49;79.53
56340;BME280;42243;42.644;23.366;2023-05-21T02:38:15;94191.13;;;14.33;78.87
56340;BME280;42243;42.644;23.366;2023-05-21T02:40:44;94160.88;;;14.02;79.07
56340;BME280;42243;42.644;23.366;2023-05-21T02:43:10;94345.78;;;15.16;79.64
56340;BME280;42243;42.644;23.366;2023-05-21T02:45:35;94322.44;;;14.91;80.06
56340;BME280;42243;42.644;23.366;2023-05-21T02:48:01;94346.91;;;15.08;79.86
56340;BME280;42243;42.644;23.366;2023-05-21T02:50:26;94353.06;;;15.14;79.75
56340;BME280;42243;42.644;23.366;2023-05-21T02:52:52;94338.44;;;15.30;79.02
56340;BME280;42243;42.644;23.366;2023-05-21T02:55:17;94336.59;;;15.30;78.96
56340;BME280;42243;42.644;23.366;2023-05-21T02:57:42;94218.84;;;13.82;81.45
56340;BME280;42243;42.644;23.366;2023-05-21T03:00:09;94320.06;;;14.54;82.04
56340;BME280;42243;42.644;23.366;2023-05-21T03:02:35;94254.53;;;14.30;81.46
56340;BME280;42243;42.644;23.366;2023-05-21T03:05:00;94274.44;;;14.43;81.16
56340;BME280;42243;42.644;23.366;2023-05-21T03:07:26;94319.41;;;14.70;81.45
56340;BME280;42243;42.644;23.366;2023-05-21T03:09:52;94283.34;;;14.42;81.55
56340;BME280;42243;42.644;23.366;2023-05-21T03:12:17;94326.78;;;14.73;81.47
56340;BME280;42243;42.644;23.366;2023-05-21T03:14:43;94210.53;;;14.09;81.23
56340;BME280;42243;42.644;23.366;2023-05-21T03:17:10;94146.97;;;13.78;80.96
56340;BME280;42243;42.644;23.366;2023-05-21T03:19:40;94314.09;;;14.82;81.29
56340;BME280;42243;42.644;23.366;2023-05-21T03:22:06;94342.81;;;15.12;80.96
56340;BME280;42243;42.644;23.366;2023-05-21T03:24:31;94349.66;;;15.13;81.30
56340;BME280;42243;42.644;23.366;2023-05-21T03:27:00;94326.75;;;14.97;80.93
56340;BME280;42243;42.644;23.366;2023-05-21T03:29:26;94352.69;;;15.34;80.36
56340;BME280;42243;42.644;23.366;2023-05-21T03:31:52;94350.56;;;15.19;80.15
56340;BME280;42243;42.644;23.366;2023-05-21T03:34:18;94352.66;;;14.93;81.78
56340;BME280;42243;42.644;23.366;2023-05-21T03:36:44;94274.91;;;14.63;81.18
56340;BME280;42243;42.644;23.366;2023-05-21T03:39:10;94304.69;;;14.46;82.19
56340;BME280;42243;42.644;23.366;2023-05-21T03:41:35;94267.63;;;14.18;83.18
56340;BME280;42243;42.644;23.366;2023-05-21T03:44:01;94251.44;;;14.10;82.89
56340;BME280;42243;42.644;23.366;2023-05-21T03:46:26;94292.38;;;14.34;83.40
56340;BME280;42243;42.644;23.366;2023-05-21T03:48:52;94228.22;;;14.01;82.89
56340;BME280;42243;42.644;23.366;2023-05-21T03:51:18;94290.09;;;14.50;82.75
56340;BME280;42243;42.644;23.366;2023-05-21T03:53:44;94128.91;;;13.65;81.98
56340;BME280;42243;42.644;23.366;2023-05-21T03:56:10;94311.03;;;14.97;80.90
56340;BME280;42243;42.644;23.366;2023-05-21T03:58:35;94264.75;;;14.67;80.81
56340;BME280;42243;42.644;23.366;2023-05-21T04:01:01;94327.31;;;14.99;80.86
56340;BME280;42243;42.644;23.366;2023-05-21T04:03:28;94325.84;;;15.03;80.67
56340;BME280;42243;42.644;23.366;2023-05-21T04:05:54;94349.72;;;15.30;80.57
56340;BME280;42243;42.644;23.366;2023-05-21T04:08:20;94324.16;;;15.26;80.04
56340;BME280;42243;42.644;23.366;2023-05-21T04:10:46;94284.28;;;15.00;79.64
56340;BME280;42243;42.644;23.366;2023-05-21T04:13:11;94346.03;;;15.43;79.84
56340;BME280;42243;42.644;23.366;2023-05-21T04:15:36;94348.59;;;15.55;79.66
56340;BME280;42243;42.644;23.366;2023-05-21T04:18:03;94257.72;;;14.96;79.23
56340;BME280;42243;42.644;23.366;2023-05-21T04:20:28;94354.03;;;15.65;79.10
56340;BME280;42243;42.644;23.366;2023-05-21T04:22:54;94272.63;;;15.36;77.48
56340;BME280;42243;42.644;23.366;2023-05-21T04:25:19;94319.19;;;15.70;76.99
56340;BME280;42243;42.644;23.366;2023-05-21T04:27:47;94263.78;;;15.26;77.49
56340;BME280;42243;42.644;23.366;2023-05-21T04:30:12;94260.28;;;15.08;77.72
56340;BME280;42243;42.644;23.366;2023-05-21T04:32:38;94326.16;;;15.47;78.42
56340;BME280;42243;42.644;23.366;2023-05-21T04:35:04;94246.91;;;14.93;78.24
56340;BME280;42243;42.644;23.366;2023-05-21T04:37:29;94300.69;;;15.48;78.16
56340;BME280;42243;42.644;23.366;2023-05-21T04:39:56;94306.91;;;15.58;78.12
56340;BME280;42243;42.644;23.366;2023-05-21T04:42:22;94175.94;;;14.88;77.54
56340;BME280;42243;42.644;23.366;2023-05-21T04:44:49;94348.25;;;16.09;76.05
56340;BME280;42243;42.644;23.366;2023-05-21T04:47:15;94333.03;;;16.11;75.46
56340;BME280;42243;42.644;23.366;2023-05-21T04:49:40;94287.94;;;16.19;74.90
56340;BME280;42243;42.644;23.366;2023-05-21T04:52:06;94300.34;;;16.40;74.07
56340;BME280;42243;42.644;23.366;2023-05-21T04:54:32;94337.06;;;16.69;74.51
56340;BME280;42243;42.644;23.366;2023-05-21T04:56:57;94296.38;;;16.60;74.21
56340;BME280;42243;42.644;23.366;2023-05-21T04:59:23;94288.56;;;16.65;73.97
56340;BME280;42243;42.644;23.366;2023-05-21T05:01:48;94335.41;;;17.02;73.35
56340;BME280;42243;42.644;23.366;2023-05-21T05:04:14;94289.97;;;16.90;71.35
56340;BME280;42243;42.644;23.366;2023-05-21T05:06:39;94328.41;;;17.35;69.47
56340;BME280;42243;42.644;23.366;2023-05-21T05:09:04;94263.75;;;17.00;70.28
56340;BME280;42243;42.644;23.366;2023-05-21T05:11:30;94287.75;;;17.26;68.37
56340;BME280;42243;42.644;23.366;2023-05-21T05:13:55;94342.84;;;17.81;69.55
56340;BME280;42243;42.644;23.366;2023-05-21T05:16:21;94336.69;;;17.71;69.90
56340;BME280;42243;42.644;23.366;2023-05-21T05:18:53;94358.00;;;17.64;68.93
56340;BME280;42243;42.644;23.366;2023-05-21T05:21:20;94359.59;;;17.92;66.77
56340;BME280;42243;42.644;23.366;2023-05-21T05:23:46;94301.56;;;17.92;66.41
56340;BME280;42243;42.644;23.366;2023-05-21T05:26:12;94357.22;;;18.55;65.96
56340;BME280;42243;42.644;23.366;2023-05-21T05:28:37;94244.50;;;17.81;57.48
56340;BME280;42243;42.644;23.366;2023-05-21T05:31:02;94360.19;;;17.72;59.87
56340;BME280;42243;42.644;23.366;2023-05-21T05:33:28;94238.63;;;17.14;61.07
56340;BME280;42243;42.644;23.366;2023-05-21T05:35:53;94308.59;;;18.14;60.42
56340;BME280;42243;42.644;23.366;2023-05-21T05:38:19;94287.81;;;18.60;58.52
56340;BME280;42243;42.644;23.366;2023-05-21T05:40:44;94274.78;;;18.91;55.12
56340;BME280;42243;42.644;23.366;2023-05-21T05:43:09;94326.16;;;19.26;55.05
56340;BME280;42243;42.644;23.366;2023-05-21T05:45:35;94344.84;;;19.72;53.86
56340;BME280;42243;42.644;23.366;2023-05-21T05:48:01;94338.97;;;19.59;53.10
56340;BME280;42243;42.644;23.366;2023-05-21T05:50:26;94242.09;;;19.02;52.65
56340;BME280;42243;42.644;23.366;2023-05-21T05:52:52;94263.84;;;19.35;52.57
56340;BME280;42243;42.644;23.366;2023-05-21T05:55:17;94338.56;;;20.14;51.70
56340;BME280;42243;42.644;23.366;2023-05-21T05:57:42;94286.94;;;20.11;50.69
56340;BME280;42243;42.644;23.366;2023-05-21T06:00:08;94281.28;;;20.90;49.16
56340;BME280;42243;42.644;23.366;2023-05-21T06:02:37;94320.78;;;21.56;48.52
56340;BME280;42243;42.644;23.366;2023-05-21T06:05:03;94264.56;;;22.82;45.20
56340;BME280;42243;42.644;23.366;2023-05-21T06:07:31;94327.16;;;25.29;40.21
56340;BME280;42243;42.644;23.366;2023-05-21T06:09:56;94266.44;;;27.33;36.07
56340;BME280;42243;42.644;23.366;2023-05-21T06:12:21;94311.38;;;28.75;33.07
56340;BME280;42243;42.644;23.366;2023-05-21T06:14:47;94255.31;;;28.83;31.45
56340;BME280;42243;42.644;23.366;2023-05-21T06:17:13;94232.56;;;28.89;31.47
56340;BME280;42243;42.644;23.366;2023-05-21T06:19:38;94296.38;;;31.39;28.45
56340;BME280;42243;42.644;23.366;2023-05-21T06:22:04;94239.06;;;32.36;27.83
56340;BME280;42243;42.644;23.366;2023-05-21T06:24:30;94297.03;;;34.20;25.21
56340;BME280;42243;42.644;23.366;2023-05-21T06:26:55;94268.56;;;34.07;25.57
56340;BME280;42243;42.644;23.366;2023-05-21T06:29:20;94297.84;;;37.66;21.67
56340;BME280;42243;42.644;23.366;2023-05-21T06:31:47;94319.97;;;35.08;24.33
56340;BME280;42243;42.644;23.366;2023-05-21T06:34:12;94302.94;;;33.36;25.60
56340;BME280;42243;42.644;23.366;2023-05-21T06:36:38;94240.94;;;31.26;26.73
56340;BME280;42243;42.644;23.366;2023-05-21T06:39:03;94318.19;;;29.20;30.48
56340;BME280;42243;42.644;23.366;2023-05-21T06:41:29;94288.72;;;28.12;32.34
56340;BME280;42243;42.644;23.366;2023-05-21T06:43:54;94275.84;;;27.22;33.59
56340;BME280;42243;42.644;23.366;2023-05-21T06:46:21;94316.69;;;26.96;34.65
56340;BME280;42243;42.644;23.366;2023-05-21T06:48:46;94310.16;;;26.80;34.36
56340;BME280;42243;42.644;23.366;2023-05-21T06:51:12;94314.63;;;26.39;35.78
56340;BME280;42243;42.644;23.366;2023-05-21T06:53:37;94315.47;;;26.71;35.63
56340;BME280;42243;42.644;23.366;2023-05-21T06:56:03;94181.63;;;26.36;35.40
56340;BME280;42243;42.644;23.366;2023-05-21T06:58:29;94252.63;;;26.91;35.14
56340;BME280;42243;42.644;23.366;2023-05-21T07:00:59;94271.75;;;27.90;33.05
56340;BME280;42243;42.644;23.366;2023-05-21T07:03:25;94297.88;;;28.28;32.96
56340;BME280;42243;42.644;23.366;2023-05-21T07:05:52;94179.81;;;27.11;33.42
56340;BME280;42243;42.644;23.366;2023-05-21T07:08:17;94221.53;;;29.71;29.80
56340;BME280;42243;42.644;23.366;2023-05-21T07:10:44;94296.25;;;33.49;25.65
56340;BME280;42243;42.644;23.366;2023-05-21T07:13:10;94253.44;;;35.64;22.82
56340;BME280;42243;42.644;23.366;2023-05-21T07:15:35;94143.63;;;34.94;22.58
56340;BME280;42243;42.644;23.366;2023-05-21T07:18:01;94227.50;;;34.63;23.05
56340;BME280;42243;42.644;23.366;2023-05-21T07:20:27;94204.00;;;34.67;23.19
56340;BME280;42243;42.644;23.366;2023-05-21T07:22:53;94254.78;;;36.38;21.72
56340;BME280;42243;42.644;23.366;2023-05-21T07:25:18;94242.25;;;29.41;29.55
56340;BME280;42243;42.644;23.366;2023-05-21T07:27:43;94192.34;;;34.67;23.03
56340;BME280;42243;42.644;23.366;2023-05-21T07:30:09;94232.28;;;35.73;22.25
56340;BME280;42243;42.644;23.366;2023-05-21T07:32:35;94283.28;;;35.64;22.36
56340;BME280;42243;42.644;23.366;2023-05-21T07:35:00;94215.38;;;33.95;23.63
56340;BME280;42243;42.644;23.366;2023-05-21T07:37:26;94284.00;;;35.61;22.59
56340;BME280;42243;42.644;23.366;2023-05-21T07:39:52;94297.72;;;31.21;27.04
56340;BME280;42243;42.644;23.366;2023-05-21T07:42:18;94226.97;;;28.08;30.85
56340;BME280;42243;42.644;23.366;2023-05-21T07:44:43;94216.91;;;35.27;22.91
56340;BME280;42243;42.644;23.366;2023-05-21T07:47:08;94244.22;;;38.61;19.13
56340;BME280;42243;42.644;23.366;2023-05-21T07:49:34;94289.69;;;37.66;20.12
56340;BME280;42243;42.644;23.366;2023-05-21T07:51:59;94191.44;;;30.11;28.01
56340;BME280;42243;42.644;23.366;2023-05-21T07:54:25;94248.56;;;32.45;24.20
56340;BME280;42243;42.644;23.366;2023-05-21T07:56:50;94218.91;;;27.65;30.91
56340;BME280;42243;42.644;23.366;2023-05-21T07:59:16;94288.69;;;28.64;30.24
56340;BME280;42243;42.644;23.366;2023-05-21T08:01:41;94165.59;;;26.85;30.64
56340;BME280;42243;42.644;23.366;2023-05-21T08:04:07;94191.66;;;28.06;29.59
56340;BME280;42243;42.644;23.366;2023-05-21T08:06:33;94300.56;;;29.61;28.16
56340;BME280;42243;42.644;23.366;2023-05-21T08:09:01;94187.94;;;28.28;27.52
56340;BME280;42243;42.644;23.366;2023-05-21T08:11:27;94273.25;;;28.26;28.35
56340;BME280;42243;42.644;23.366;2023-05-21T08:13:53;94266.38;;;28.16;27.96
56340;BME280;42243;42.644;23.366;2023-05-21T08:16:19;94271.84;;;28.37;28.06
56340;BME280;42243;42.644;23.366;2023-05-21T08:18:47;94273.03;;;26.02;30.22
56340;BME280;42243;42.644;23.366;2023-05-21T08:21:12;94243.28;;;26.80;28.72
56340;BME280;42243;42.644;23.366;2023-05-21T08:23:38;94207.00;;;26.56;29.23
56340;BME280;42243;42.644;23.366;2023-05-21T08:26:03;94297.81;;;22.79;36.19
56340;BME280;42243;42.644;23.366;2023-05-21T08:28:29;94220.44;;;22.56;35.82
56340;BME280;42243;42.644;23.366;2023-05-21T08:30:55;94219.59;;;20.74;38.83
56340;BME280;42243;42.644;23.366;2023-05-21T08:33:20;94299.88;;;21.50;38.51
56340;BME280;42243;42.644;23.366;2023-05-21T08:35:45;94208.63;;;21.01;38.31
56340;BME280;42243;42.644;23.366;2023-05-21T08:38:11;94147.41;;;20.37;38.60
56340;BME280;42243;42.644;23.366;2023-05-21T08:40:36;94196.31;;;20.55;39.16
56340;BME280;42243;42.644;23.366;2023-05-21T08:43:02;94138.94;;;21.35;37.65
56340;BME280;42243;42.644;23.366;2023-05-21T08:45:33;94196.88;;;22.26;35.91
56340;BME280;42243;42.644;23.366;2023-05-21T08:48:02;94237.09;;;22.09;36.67
56340;BME280;42243;42.644;23.366;2023-05-21T08:50:30;94289.75;;;20.92;39.21
56340;BME280;42243;42.644;23.366;2023-05-21T08:52:55;94281.69;;;21.17;40.14
56340;BME280;42243;42.644;23.366;2023-05-21T08:55:23;94283.00;;;22.44;38.65
56340;BME280;42243;42.644;23.366;2023-05-21T08:57:48;94214.94;;;23.39;35.82
56340;BME280;42243;42.644;23.366;2023-05-21T09:00:15;94204.28;;;23.58;35.51
56340;BME280;42243;42.644;23.366;2023-05-21T09:02:41;94238.16;;;23.52;35.48
56340;BME280;42243;42.644;23.366;2023-05-21T09:05:08;94297.13;;;23.59;35.43
56340;BME280;42243;42.644;23.366;2023-05-21T09:07:38;94290.38;;;23.86;34.74
56340;BME280;42243;42.644;23.366;2023-05-21T09:10:11;94219.59;;;23.85;35.09
56340;BME280;42243;42.644;23.366;2023-05-21T09:12:37;94242.47;;;23.67;35.80
56340;BME280;42243;42.644;23.366;2023-05-21T09:15:03;94308.06;;;24.15;34.68
56340;BME280;42243;42.644;23.366;2023-05-21T09:17:28;94275.91;;;24.11;33.63
56340;BME280;42243;42.644;23.366;2023-05-21T09:20:07;94286.59;;;24.86;33.61
56340;BME280;42243;42.644;23.366;2023-05-21T09:22:43;94280.59;;;25.08;32.75
56340;BME280;42243;42.644;23.366;2023-05-21T09:25:10;94309.06;;;24.98;31.72
56340;BME280;42243;42.644;23.366;2023-05-21T09:27:36;94179.56;;;23.90;31.49
56340;BME280;42243;42.644;23.366;2023-05-21T09:30:03;94186.56;;;23.86;31.15
56340;BME280;42243;42.644;23.366;2023-05-21T09:32:29;94233.97;;;23.65;32.08
56340;BME280;42243;42.644;23.366;2023-05-21T09:34:54;94303.66;;;24.24;31.49
56340;BME280;42243;42.644;23.366;2023-05-21T09:37:20;94250.56;;;23.76;32.00
56340;BME280;42243;42.644;23.366;2023-05-21T09:39:47;94233.34;;;24.06;31.67
56340;BME280;42243;42.644;23.366;2023-05-21T09:42:12;94189.44;;;23.90;31.70
56340;BME280;42243;42.644;23.366;2023-05-21T09:44:41;94170.59;;;23.86;31.68
56340;BME280;42243;42.644;23.366;2023-05-21T09:47:07;94276.72;;;24.58;31.24
56340;BME280;42243;42.644;23.366;2023-05-21T09:49:36;94231.06;;;24.32;30.94
56340;BME280;42243;42.644;23.366;2023-05-21T09:52:01;94222.50;;;24.03;30.88
56340;BME280;42243;42.644;23.366;2023-05-21T09:54:32;94226.00;;;24.50;31.26
56340;BME280;42243;42.644;23.366;2023-05-21T09:56:59;94279.94;;;25.02;29.97
56340;BME280;42243;42.644;23.366;2023-05-21T09:59:37;94176.09;;;24.36;30.24
56340;BME280;42243;42.644;23.366;2023-05-21T10:02:16;94263.91;;;24.88;29.66
56340;BME280;42243;42.644;23.366;2023-05-21T10:04:43;94256.53;;;24.38;30.27
56340;BME280;42243;42.644;23.366;2023-05-21T10:07:08;94272.59;;;24.66;29.94
56340;BME280;42243;42.644;23.366;2023-05-21T10:09:34;94279.78;;;24.52;30.10
56340;BME280;42243;42.644;23.366;2023-05-21T10:11:59;94255.00;;;24.65;30.36
56340;BME280;42243;42.644;23.366;2023-05-21T10:14:26;94275.94;;;25.13;28.88
56340;BME280;42243;42.644;23.366;2023-05-21T10:16:56;94262.53;;;24.91;28.97
56340;BME280;42243;42.644;23.366;2023-05-21T10:19:23;94229.16;;;24.52;28.87
56340;BME280;42243;42.644;23.366;2023-05-21T10:21:49;94273.19;;;24.77;29.50
56340;BME280;42243;42.644;23.366;2023-05-21T10:24:16;94257.94;;;24.03;30.31
56340;BME280;42243;42.644;23.366;2023-05-21T10:26:43;94150.63;;;23.18;30.65
56340;BME280;42243;42.644;23.366;2023-05-21T10:29:08;94258.28;;;23.39;31.77
56340;BME280;42243;42.644;23.366;2023-05-21T10:31:34;94233.13;;;23.32;31.67
56340;BME280;42243;42.644;23.366;2023-05-21T10:34:02;94174.81;;;23.16;32.19
56340;BME280;42243;42.644;23.366;2023-05-21T10:36:30;94170.97;;;23.28;32.09
56340;BME280;42243;42.644;23.366;2023-05-21T10:38:57;94176.03;;;23.43;32.05
56340;BME280;42243;42.644;23.366;2023-05-21T10:41:25;94137.88;;;23.34;32.17
56340;BME280;42243;42.644;23.366;2023-05-21T10:44:10;94184.28;;;23.79;31.90
56340;BME280;42243;42.644;23.366;2023-05-21T10:46:58;94259.22;;;24.06;32.31
56340;BME280;42243;42.644;23.366;2023-05-21T11:00:34;94257.06;;;23.32;34.59
56340;BME280;42243;42.644;23.366;2023-05-21T11:03:00;94148.00;;;21.97;35.46
56340;BME280;42243;42.644;23.366;2023-05-21T11:05:41;94265.94;;;21.86;36.58
56340;BME280;42243;42.644;23.366;2023-05-21T11:08:25;94195.78;;;21.24;37.77
56340;BME280;42243;42.644;23.366;2023-05-21T11:10:53;94167.44;;;21.64;36.58
56340;BME280;42243;42.644;23.366;2023-05-21T11:13:19;94232.50;;;21.85;37.00
56340;BME280;42243;42.644;23.366;2023-05-21T11:21:13;94241.91;;;23.32;35.29
56340;BME280;42243;42.644;23.366;2023-05-21T11:23:52;94201.19;;;22.89;34.90
56340;BME280;42243;42.644;23.366;2023-05-21T11:26:20;94113.41;;;22.56;35.17
56340;BME280;42243;42.644;23.366;2023-05-21T11:28:50;94210.47;;;23.15;34.78
56340;BME280;42243;42.644;23.366;2023-05-21T11:31:31;94140.59;;;22.48;34.56
56340;BME280;42243;42.644;23.366;2023-05-21T11:34:19;94230.53;;;23.08;34.95
56340;BME280;42243;42.644;23.366;2023-05-21T11:36:47;94231.41;;;22.50;35.27
56340;BME280;42243;42.644;23.366;2023-05-21T11:39:13;94241.19;;;21.62;37.88
56340;BME280;42243;42.644;23.366;2023-05-21T11:42:01;94238.13;;;21.34;38.05
56340;BME280;42243;42.644;23.366;2023-05-21T11:44:46;94233.81;;;21.53;38.16
56340;BME280;42243;42.644;23.366;2023-05-21T11:47:21;94232.78;;;21.39;38.50
56340;BME280;42243;42.644;23.366;2023-05-21T11:49:47;94234.44;;;21.30;38.96
56340;BME280;42243;42.644;23.366;2023-05-21T11:52:13;94219.81;;;21.43;38.46
56340;BME280;42243;42.644;23.366;2023-05-21T11:54:42;94116.66;;;20.47;39.02
56340;BME280;42243;42.644;23.366;2023-05-21T11:57:10;94193.41;;;20.67;40.27
56340;BME280;42243;42.644;23.366;2023-05-21T11:59:36;94172.06;;;20.23;41.00
56340;BME280;42243;42.644;23.366;2023-05-21T12:02:03;94223.31;;;20.68;40.70
56340;BME280;42243;42.644;23.366;2023-05-21T12:04:30;94224.09;;;20.73;41.21
56340;BME280;42243;42.644;23.366;2023-05-21T12:06:55;94220.44;;;20.64;40.65
56340;BME280;42243;42.644;23.366;2023-05-21T12:09:22;94129.97;;;20.26;40.88
56340;BME280;42243;42.644;23.366;2023-05-21T12:11:48;94203.28;;;20.36;41.09
56340;BME280;42243;42.644;23.366;2023-05-21T12:14:15;94191.88;;;20.35;41.55
56340;BME280;42243;42.644;23.366;2023-05-21T12:16:40;94149.88;;;20.08;42.08
56340;BME280;42243;42.644;23.366;2023-05-21T12:19:06;94076.66;;;19.78;41.86
56340;BME280;42243;42.644;23.366;2023-05-21T12:21:32;94171.72;;;20.50;41.60
56340;BME280;42243;42.644;23.366;2023-05-21T12:23:58;94210.09;;;20.68;41.44
56340;BME280;42243;42.644;23.366;2023-05-21T12:26:24;94172.38;;;20.00;42.84
56340;BME280;42243;42.644;23.366;2023-05-21T12:28:54;94225.81;;;20.02;45.11
56340;BME280;42243;42.644;23.366;2023-05-21T12:31:21;94183.00;;;19.85;45.68
56340;BME280;42243;42.644;23.366;2023-05-21T12:33:50;94210.47;;;20.10;46.14
56340;BME280;42243;42.644;23.366;2023-05-21T12:36:25;94147.25;;;19.62;46.65
56340;BME280;42243;42.644;23.366;2023-05-21T12:38:51;94159.69;;;19.61;47.00
56340;BME280;42243;42.644;23.366;2023-05-21T12:41:17;94208.31;;;20.27;45.89
56340;BME280;42243;42.644;23.366;2023-05-21T12:43:43;94114.75;;;19.61;45.91
56340;BME280;42243;42.644;23.366;2023-05-21T12:46:11;94105.78;;;19.32;47.01
56340;BME280;42243;42.644;23.366;2023-05-21T12:48:47;94126.91;;;19.62;46.71
56340;BME280;42243;42.644;23.366;2023-05-21T12:51:12;94205.66;;;20.27;46.44
56340;BME280;42243;42.644;23.366;2023-05-21T12:53:40;94180.47;;;20.60;45.97
56340;BME280;42243;42.644;23.366;2023-05-21T12:56:10;94140.69;;;20.71;45.19
56340;BME280;42243;42.644;23.366;2023-05-21T12:58:36;94206.78;;;21.41;44.48
56340;BME280;42243;42.644;23.366;2023-05-21T13:01:11;94179.63;;;21.20;44.46
56340;BME280;42243;42.644;23.366;2023-05-21T13:03:37;94123.50;;;20.63;44.20
56340;BME280;42243;42.644;23.366;2023-05-21T13:06:06;94202.81;;;20.94;43.40